createdAt,value
2022-07-25T00:00:42.963Z,8.18
2022-07-25T00:03:10.955Z,7.30
2022-07-25T00:05:38.182Z,8.48
2022-07-25T00:08:05.517Z,8.48
2022-07-25T00:10:32.546Z,8.07
2022-07-25T00:12:59.558Z,8.30
2022-07-25T00:15:26.501Z,7.53
2022-07-25T00:17:53.550Z,7.53
2022-07-25T00:20:20.579Z,8.38
2022-07-25T00:22:47.540Z,7.75
2022-07-25T00:25:14.532Z,7.95
2022-07-25T00:27:41.493Z,8.05
2022-07-25T00:30:09.209Z,7.30
2022-07-25T00:32:36.203Z,7.90
2022-07-25T00:35:03.391Z,7.85
2022-07-25T00:37:30.600Z,7.20
2022-07-25T00:39:57.610Z,7.60
2022-07-25T00:42:24.637Z,8.05
2022-07-25T00:44:52.366Z,7.50
2022-07-25T00:47:19.429Z,8.23
2022-07-25T00:49:46.628Z,8.43
2022-07-25T00:52:14.317Z,7.30
2022-07-25T00:54:41.400Z,7.22
2022-07-25T00:57:08.363Z,7.85
2022-07-25T00:59:35.304Z,7.57
2022-07-25T01:02:03.789Z,7.88
2022-07-25T01:04:31.386Z,7.80
2022-07-25T01:06:58.701Z,7.55
2022-07-25T01:09:26.603Z,7.85
2022-07-25T01:11:53.593Z,7.95
2022-07-25T01:14:22.110Z,8.52
2022-07-25T01:16:49.091Z,8.43
2022-07-25T01:19:17.598Z,8.07
2022-07-25T01:21:44.601Z,8.00
2022-07-25T01:24:12.558Z,8.13
2022-07-25T01:26:40.087Z,7.97
2022-07-25T01:29:07.178Z,8.27
2022-07-25T01:31:34.607Z,7.65
2022-07-25T01:34:01.697Z,7.80
2022-07-25T01:36:28.608Z,7.47
2022-07-25T01:38:55.604Z,7.50
2022-07-25T01:41:22.939Z,7.32
2022-07-25T01:43:50.146Z,8.40
2022-07-25T01:46:17.321Z,7.80
2022-07-25T01:48:44.499Z,8.07
2022-07-25T01:51:11.640Z,8.43
2022-07-25T01:53:38.719Z,8.55
2022-07-25T01:56:06.878Z,7.88
2022-07-25T01:58:36.032Z,8.27
2022-07-25T02:01:03.076Z,8.25
2022-07-25T02:03:30.081Z,8.20
2022-07-25T02:06:02.832Z,8.05
2022-07-25T02:08:30.471Z,8.40
2022-07-25T02:10:58.484Z,8.07
2022-07-25T02:13:25.901Z,8.45
2022-07-25T02:15:52.846Z,7.88
2022-07-25T02:18:19.919Z,8.40
2022-07-25T02:20:46.902Z,8.30
2022-07-25T02:23:13.911Z,8.20
2022-07-25T02:25:41.088Z,8.48
2022-07-25T02:28:08.044Z,7.70
2022-07-25T02:30:38.328Z,8.77
2022-07-25T02:33:05.697Z,8.20
2022-07-25T02:35:32.877Z,8.27
2022-07-25T02:37:59.887Z,7.97
2022-07-25T02:40:27.083Z,8.70
2022-07-25T02:42:54.060Z,8.85
2022-07-25T02:45:21.239Z,8.95
2022-07-25T02:47:48.270Z,8.88
2022-07-25T02:50:15.306Z,8.27
2022-07-25T02:52:43.327Z,8.68
2022-07-25T02:55:11.621Z,8.65
2022-07-25T02:57:38.757Z,8.30
2022-07-25T03:00:07.036Z,8.32
2022-07-25T03:02:34.439Z,8.27
2022-07-25T03:05:01.500Z,7.88
2022-07-25T03:07:30.390Z,9.27
2022-07-25T03:09:57.382Z,7.68
2022-07-25T03:12:24.366Z,8.65
2022-07-25T03:14:51.424Z,8.20
2022-07-25T03:17:18.470Z,8.07
2022-07-25T03:19:45.555Z,8.02
2022-07-25T03:22:12.559Z,7.93
2022-07-25T03:24:39.681Z,7.90
2022-07-25T03:27:06.688Z,7.75
2022-07-25T03:29:33.962Z,7.70
2022-07-25T03:32:01.044Z,6.82
2022-07-25T03:34:28.309Z,7.47
2022-07-25T03:36:55.376Z,8.38
2022-07-25T03:39:22.392Z,7.78
2022-07-25T03:41:49.344Z,7.68
2022-07-25T03:44:16.565Z,8.45
2022-07-25T03:46:43.505Z,7.82
2022-07-25T03:49:10.541Z,7.20
2022-07-25T03:51:37.933Z,7.55
2022-07-25T03:54:06.450Z,7.53
2022-07-25T03:56:37.109Z,8.05
2022-07-25T04:01:39.213Z,6.78
2022-07-25T04:04:07.260Z,6.68
2022-07-25T04:06:34.557Z,6.80
2022-07-25T04:09:02.249Z,6.57
2022-07-25T04:11:30.960Z,6.68
2022-07-25T04:13:58.874Z,6.70
2022-07-25T04:16:27.815Z,6.85
2022-07-25T04:18:56.220Z,7.40
2022-07-25T04:21:24.568Z,7.15
2022-07-25T04:23:51.598Z,6.72
2022-07-25T04:26:19.441Z,6.60
2022-07-25T04:28:46.593Z,6.70
2022-07-25T04:31:14.018Z,6.38
2022-07-25T04:33:41.313Z,6.20
2022-07-25T04:36:09.078Z,6.78
2022-07-25T04:38:36.292Z,6.90
2022-07-25T04:41:04.370Z,6.85
2022-07-25T04:43:31.599Z,6.85
2022-07-25T04:45:58.797Z,7.03
2022-07-25T04:48:25.896Z,6.82
2022-07-25T04:50:53.054Z,6.75
2022-07-25T04:53:20.026Z,7.25
2022-07-25T04:55:47.068Z,7.25
2022-07-25T04:58:14.058Z,6.93
2022-07-25T05:00:41.224Z,7.28
2022-07-25T05:03:08.249Z,6.45
2022-07-25T05:05:35.227Z,6.30
2022-07-25T05:08:02.334Z,6.97
2022-07-25T05:10:30.076Z,7.30
2022-07-25T05:12:57.150Z,7.50
2022-07-25T05:15:24.385Z,6.68
2022-07-25T05:17:51.608Z,7.22
2022-07-25T05:20:19.020Z,6.88
2022-07-25T05:22:46.019Z,7.43
2022-07-25T05:25:13.075Z,8.05
2022-07-25T05:27:41.148Z,6.82
2022-07-25T05:30:10.145Z,7.45
2022-07-25T05:32:37.825Z,7.20
2022-07-25T05:35:08.087Z,7.70
2022-07-25T05:37:36.479Z,7.20
2022-07-25T05:40:05.094Z,6.95
2022-07-25T05:42:32.027Z,7.65
2022-07-25T05:44:59.051Z,7.35
2022-07-25T05:47:26.015Z,7.00
2022-07-25T05:49:52.968Z,7.05
2022-07-25T05:52:19.968Z,7.53
2022-07-25T05:54:46.963Z,7.43
2022-07-25T05:57:13.983Z,7.60
2022-07-25T05:59:41.059Z,7.32
2022-07-25T06:02:08.403Z,7.65
2022-07-25T06:04:35.526Z,7.22
2022-07-25T06:07:02.738Z,7.10
2022-07-25T06:09:32.006Z,6.88
2022-07-25T06:12:01.085Z,6.85
2022-07-25T06:14:29.749Z,6.88
2022-07-25T06:16:57.294Z,7.05
2022-07-25T06:19:24.458Z,6.70
2022-07-25T06:21:51.531Z,6.30
2022-07-25T06:24:18.702Z,7.30
2022-07-25T06:26:45.683Z,6.50
2022-07-25T06:29:12.787Z,7.05
2022-07-25T06:31:40.087Z,6.20
2022-07-25T06:34:07.599Z,6.82
2022-07-25T06:36:35.010Z,6.57
2022-07-25T06:39:02.541Z,6.28
2022-07-25T06:41:29.712Z,6.35
2022-07-25T06:43:56.719Z,6.65
2022-07-25T06:46:23.845Z,6.57
2022-07-25T06:48:50.982Z,6.63
2022-07-25T06:51:17.998Z,6.82
2022-07-25T06:53:44.937Z,6.57
2022-07-25T06:56:17.197Z,6.10
2022-07-25T06:58:45.075Z,6.30
2022-07-25T07:01:12.513Z,6.43
2022-07-25T07:03:40.440Z,6.72
2022-07-25T07:06:10.827Z,7.00
2022-07-25T07:08:38.253Z,6.30
2022-07-25T07:11:06.230Z,7.00
2022-07-25T07:13:34.215Z,7.30
2022-07-25T07:16:01.301Z,6.72
2022-07-25T07:18:28.489Z,6.72
2022-07-25T07:20:55.496Z,6.70
2022-07-25T07:23:22.475Z,6.28
2022-07-25T07:25:51.727Z,6.07
2022-07-25T07:28:19.206Z,7.40
2022-07-25T07:33:33.673Z,18.92
2022-07-25T07:36:02.355Z,9.95
2022-07-25T07:38:29.376Z,9.43
2022-07-25T07:40:56.353Z,7.55
2022-07-25T07:43:29.190Z,7.28
2022-07-25T07:45:57.010Z,7.57
2022-07-25T07:48:24.064Z,7.45
2022-07-25T07:50:51.289Z,7.40
2022-07-25T07:53:18.275Z,7.25
2022-07-25T07:55:45.538Z,7.07
2022-07-25T07:58:17.395Z,6.40
2022-07-25T08:00:46.165Z,6.82
2022-07-25T08:03:13.802Z,6.57
2022-07-25T08:05:43.688Z,7.38
2022-07-25T08:08:13.006Z,6.63
2022-07-25T08:10:42.160Z,6.85
2022-07-25T08:13:21.055Z,6.55
2022-07-25T08:15:54.663Z,6.78
2022-07-25T08:18:21.960Z,6.30
2022-07-25T08:20:50.158Z,6.45
2022-07-25T08:23:17.819Z,6.47
2022-07-25T08:25:45.774Z,6.20
2022-07-25T08:28:13.749Z,5.95
2022-07-25T08:30:42.335Z,6.00
2022-07-25T08:33:13.421Z,6.03
2022-07-25T08:35:45.547Z,6.32
2022-07-25T08:38:12.512Z,6.72
2022-07-25T08:40:39.704Z,9.48
2022-07-25T08:43:09.090Z,7.45
2022-07-25T08:45:37.082Z,7.30
2022-07-25T08:48:04.376Z,7.13
2022-07-25T08:50:31.420Z,6.18
2022-07-25T08:53:31.010Z,6.40
2022-07-25T08:55:46.828Z,6.13
2022-07-25T08:58:15.567Z,6.07
2022-07-25T09:00:42.864Z,6.97
2022-07-25T09:03:10.420Z,6.53
2022-07-25T09:05:38.634Z,6.78
2022-07-25T09:08:19.884Z,6.13
2022-07-25T09:10:49.872Z,6.18
2022-07-25T09:13:17.743Z,7.03
2022-07-25T09:15:53.921Z,6.25
2022-07-25T09:18:26.802Z,6.10
2022-07-25T09:20:59.183Z,5.95
2022-07-25T09:23:38.362Z,6.38
2022-07-25T09:26:08.343Z,7.18
2022-07-25T09:28:43.696Z,6.93
2022-07-25T09:31:11.589Z,6.60
2022-07-25T09:33:48.027Z,6.53
2022-07-25T09:38:53.030Z,6.47
2022-07-25T09:41:20.165Z,6.10
2022-07-25T09:43:47.766Z,6.93
2022-07-25T09:46:14.908Z,6.93
2022-07-25T09:48:45.323Z,6.60
2022-07-25T09:51:12.592Z,6.25
2022-07-25T09:53:40.890Z,6.20
2022-07-25T09:56:08.802Z,6.22
2022-07-25T09:58:35.804Z,6.10
2022-07-25T10:01:07.529Z,6.10
2022-07-25T10:04:15.190Z,6.25
2022-07-25T10:07:06.422Z,5.70
2022-07-25T10:09:33.807Z,6.38
2022-07-25T10:12:06.180Z,5.68
2022-07-25T10:14:34.102Z,5.82
2022-07-25T10:17:02.089Z,5.93
2022-07-25T10:19:54.286Z,5.88
2022-07-25T10:22:56.261Z,6.00
2022-07-25T10:25:24.216Z,6.07
2022-07-25T10:28:00.122Z,5.68
2022-07-25T10:30:34.212Z,5.65
2022-07-25T10:33:21.614Z,5.80
2022-07-25T10:35:48.665Z,6.72
2022-07-25T10:38:25.314Z,5.70
2022-07-25T10:40:52.825Z,5.70
2022-07-25T10:43:25.642Z,6.25
2022-07-25T10:45:54.291Z,6.32
2022-07-25T10:48:23.691Z,6.00
2022-07-25T10:50:59.916Z,6.03
2022-07-25T10:53:48.504Z,6.72
2022-07-25T10:56:20.765Z,5.82
2022-07-25T10:59:01.716Z,6.30
2022-07-25T11:01:33.654Z,6.75
2022-07-25T11:04:06.818Z,6.80
2022-07-25T11:06:35.322Z,6.47
2022-07-25T11:09:18.066Z,6.35
2022-07-25T11:11:48.826Z,6.65
2022-07-25T11:14:31.333Z,7.05
2022-07-25T11:17:09.439Z,6.90
2022-07-25T11:19:36.538Z,6.50
2022-07-25T11:22:06.449Z,6.25
2022-07-25T11:24:36.998Z,6.70
2022-07-25T11:27:09.730Z,6.45
2022-07-25T11:29:39.365Z,6.53
2022-07-25T11:32:10.878Z,6.47
2022-07-25T11:34:54.023Z,6.45
2022-07-25T11:37:21.849Z,6.55
2022-07-25T11:39:49.520Z,7.00
2022-07-25T11:42:18.945Z,6.35
2022-07-25T11:44:51.644Z,6.70
2022-07-25T11:47:30.964Z,6.55
2022-07-25T11:50:04.223Z,6.47
2022-07-25T11:52:32.782Z,6.50
2022-07-25T11:55:02.517Z,7.05
2022-07-25T11:57:33.668Z,7.00
2022-07-25T12:00:02.859Z,6.95
2022-07-25T12:02:37.171Z,6.28
2022-07-25T12:05:09.338Z,6.25
2022-07-25T12:07:48.770Z,6.60
2022-07-25T12:10:18.582Z,6.63
2022-07-25T12:12:51.338Z,6.35
2022-07-25T12:15:24.513Z,5.97
2022-07-25T12:17:52.795Z,6.28
2022-07-25T12:20:26.029Z,6.38
2022-07-25T12:22:58.190Z,6.07
2022-07-25T12:25:30.474Z,5.75
2022-07-25T12:28:00.254Z,6.47
2022-07-25T12:30:28.771Z,6.75
2022-07-25T12:32:56.670Z,6.35
2022-07-25T12:35:24.075Z,6.43
2022-07-25T12:37:51.949Z,6.60
2022-07-25T12:40:19.843Z,6.78
2022-07-25T12:42:47.535Z,6.60
2022-07-25T12:45:15.793Z,5.88
2022-07-25T12:47:44.222Z,6.72
2022-07-25T12:50:11.589Z,6.45
2022-07-25T12:52:38.686Z,6.97
2022-07-25T12:55:10.704Z,6.68
2022-07-25T12:57:38.705Z,6.20
2022-07-25T13:00:08.377Z,6.20
2022-07-25T13:02:35.700Z,6.03
2022-07-25T13:05:02.950Z,5.78
2022-07-25T13:07:30.803Z,6.00
2022-07-25T13:09:57.819Z,5.70
2022-07-25T13:12:25.267Z,5.93
2022-07-25T13:14:52.363Z,5.70
2022-07-25T13:17:22.479Z,5.80
2022-07-25T13:19:54.420Z,5.35
2022-07-25T13:22:21.488Z,6.05
2022-07-25T13:24:48.574Z,6.05
2022-07-25T13:27:18.961Z,5.95
2022-07-25T13:29:47.217Z,6.00
2022-07-25T13:32:14.418Z,6.00
2022-07-25T13:34:41.554Z,6.03
2022-07-25T13:37:08.574Z,6.50
2022-07-25T13:39:35.945Z,6.07
2022-07-25T13:42:03.474Z,5.78
2022-07-25T13:44:30.518Z,6.45
2022-07-25T13:46:58.783Z,6.35
2022-07-25T13:49:26.151Z,6.38
2022-07-25T13:51:53.449Z,6.72
2022-07-25T13:54:21.249Z,6.50
2022-07-25T13:56:48.333Z,6.72
2022-07-25T13:59:21.005Z,5.82
2022-07-25T14:01:48.974Z,5.57
2022-07-25T14:04:16.204Z,5.88
2022-07-25T14:06:43.584Z,6.40
2022-07-25T14:09:11.085Z,6.03
2022-07-25T14:11:38.320Z,6.20
2022-07-25T14:14:05.276Z,6.40
2022-07-25T14:16:33.853Z,5.70
2022-07-25T14:19:02.280Z,5.78
2022-07-25T14:21:30.221Z,5.47
2022-07-25T14:23:57.342Z,6.57
2022-07-25T14:26:24.570Z,6.10
2022-07-25T14:28:51.640Z,6.00
2022-07-25T14:31:18.736Z,5.90
2022-07-25T14:33:45.862Z,6.28
2022-07-25T14:36:12.976Z,5.45
2022-07-25T14:38:39.957Z,5.70
2022-07-25T14:41:12.340Z,6.15
2022-07-25T14:43:41.192Z,6.63
2022-07-25T14:46:09.174Z,5.95
2022-07-25T14:48:38.791Z,7.13
2022-07-25T14:51:07.030Z,6.45
2022-07-25T14:53:35.305Z,6.38
2022-07-25T14:56:04.874Z,5.93
2022-07-25T14:58:33.648Z,6.10
2022-07-25T15:01:01.276Z,6.43
2022-07-25T15:03:28.345Z,5.80
2022-07-25T15:05:55.428Z,5.97
2022-07-25T15:08:23.081Z,6.25
2022-07-25T15:10:50.220Z,6.75
2022-07-25T15:13:33.187Z,6.57
2022-07-25T15:16:01.397Z,6.10
2022-07-25T15:18:29.138Z,5.93
2022-07-25T15:20:56.200Z,5.68
2022-07-25T15:23:25.212Z,6.10
2022-07-25T15:26:02.925Z,6.80
2022-07-25T15:28:35.641Z,6.22
2022-07-25T15:31:03.529Z,7.22
2022-07-25T15:33:31.495Z,7.40
2022-07-25T15:35:58.809Z,7.32
2022-07-25T15:38:26.025Z,8.45
2022-07-25T15:40:53.122Z,7.97
2022-07-25T15:43:20.214Z,8.00
2022-07-25T15:45:47.263Z,8.80
2022-07-25T15:48:16.353Z,8.75
2022-07-25T15:50:46.096Z,8.40
2022-07-25T15:53:13.982Z,8.80
2022-07-25T15:55:42.396Z,9.20
2022-07-25T15:58:10.439Z,10.02
2022-07-25T16:00:38.709Z,10.75
2022-07-25T16:03:06.241Z,10.07
2022-07-25T16:05:34.168Z,10.23
2022-07-25T16:08:02.261Z,10.52
2022-07-25T16:10:31.740Z,11.27
2022-07-25T16:12:59.437Z,9.93
2022-07-25T16:15:26.905Z,9.07
2022-07-25T16:18:01.781Z,9.00
2022-07-25T16:20:31.671Z,7.82
2022-07-25T16:22:59.478Z,7.03
2022-07-25T16:25:28.701Z,6.22
2022-07-25T16:27:56.834Z,6.35
2022-07-25T16:30:24.069Z,6.13
2022-07-25T16:32:51.202Z,6.25
2022-07-25T16:35:18.229Z,5.40
2022-07-25T16:37:45.331Z,5.68
2022-07-25T16:40:12.652Z,6.43
2022-07-25T16:42:40.074Z,6.00
2022-07-25T16:45:07.642Z,6.00
2022-07-25T16:47:34.840Z,6.10
2022-07-25T16:50:02.384Z,6.45
2022-07-25T16:52:30.219Z,5.35
2022-07-25T16:54:57.221Z,6.45
2022-07-25T16:57:25.151Z,6.25
2022-07-25T16:59:55.535Z,5.85
2022-07-25T17:02:27.508Z,6.53
2022-07-25T17:04:56.975Z,6.43
2022-07-25T17:07:24.708Z,6.82
2022-07-25T17:09:52.198Z,6.47
2022-07-25T17:12:19.584Z,6.78
2022-07-25T17:14:46.673Z,7.00
2022-07-25T17:17:13.958Z,7.18
2022-07-25T17:19:41.080Z,7.80
2022-07-25T17:22:09.566Z,7.60
2022-07-25T17:24:37.009Z,6.97
2022-07-25T17:27:04.490Z,8.05
2022-07-25T17:29:31.783Z,7.28
2022-07-25T17:31:58.897Z,7.78
2022-07-25T17:34:26.990Z,8.85
2022-07-25T17:36:55.148Z,8.98
2022-07-25T17:39:22.194Z,8.20
2022-07-25T17:41:49.329Z,8.90
2022-07-25T17:44:16.749Z,8.73
2022-07-25T17:46:45.084Z,9.80
2022-07-25T17:49:12.199Z,9.20
2022-07-25T17:51:39.331Z,9.80
2022-07-25T17:54:06.686Z,8.48
2022-07-25T17:56:34.103Z,9.00
2022-07-25T17:59:02.058Z,9.27
2022-07-25T18:01:29.507Z,9.07
2022-07-25T18:03:57.187Z,9.95
2022-07-25T18:06:29.550Z,10.07
2022-07-25T18:08:57.787Z,9.52
2022-07-25T18:11:25.156Z,9.50
2022-07-25T18:13:52.232Z,10.68
2022-07-25T18:16:19.369Z,9.70
2022-07-25T18:18:46.553Z,9.88
2022-07-25T18:21:13.508Z,10.15
2022-07-25T18:23:40.533Z,11.27
2022-07-25T18:26:09.272Z,10.38
2022-07-25T18:28:36.432Z,10.93
2022-07-25T18:31:04.643Z,12.10
2022-07-25T18:33:31.809Z,10.55
2022-07-25T18:36:01.778Z,10.80
2022-07-25T18:38:31.646Z,10.90
2022-07-25T18:41:19.282Z,11.85
2022-07-25T18:43:45.757Z,11.02
2022-07-25T18:46:15.240Z,11.65
2022-07-25T18:48:44.525Z,11.70
2022-07-25T18:51:12.056Z,12.77
2022-07-25T18:53:39.089Z,12.88
2022-07-25T18:56:06.363Z,11.70
2022-07-25T18:58:33.631Z,11.45
2022-07-25T19:01:03.059Z,11.40
2022-07-25T19:03:32.804Z,11.65
2022-07-25T19:06:03.396Z,11.88
2022-07-25T19:08:31.135Z,11.63
2022-07-25T19:10:58.168Z,11.60
2022-07-25T19:13:47.556Z,11.38
2022-07-25T19:16:12.373Z,11.75
2022-07-25T19:18:39.883Z,12.35
2022-07-25T19:23:38.079Z,11.45
2022-07-25T19:26:05.552Z,11.57
2022-07-25T19:28:32.528Z,11.02
2022-07-25T19:30:59.570Z,11.10
2022-07-25T19:33:34.744Z,10.13
2022-07-25T19:36:04.324Z,10.20
2022-07-25T19:38:31.630Z,9.98
2022-07-25T19:40:59.182Z,10.15
2022-07-25T19:43:26.417Z,10.45
2022-07-25T19:45:53.682Z,9.85
2022-07-25T19:48:24.010Z,9.73
2022-07-25T19:50:52.566Z,9.73
2022-07-25T19:53:19.632Z,9.00
2022-07-25T19:55:46.674Z,9.20
2022-07-25T19:58:13.602Z,9.40
2022-07-25T20:00:40.665Z,10.15
2022-07-25T20:03:07.872Z,9.10
2022-07-25T20:05:34.979Z,9.25
2022-07-25T20:08:02.024Z,9.77
2022-07-25T20:10:29.177Z,9.52
2022-07-25T20:13:00.964Z,9.48
2022-07-25T20:15:28.824Z,8.57
2022-07-25T20:17:56.933Z,11.18
2022-07-25T20:20:24.990Z,15.05
2022-07-25T20:22:52.891Z,13.15
2022-07-25T20:25:19.847Z,9.23
2022-07-25T20:27:49.738Z,8.48
2022-07-25T20:30:17.437Z,13.15
2022-07-25T20:32:44.445Z,12.88
2022-07-25T20:35:11.465Z,9.93
2022-07-25T20:37:38.493Z,9.00
2022-07-25T20:40:06.879Z,8.77
2022-07-25T20:42:36.813Z,8.77
2022-07-25T20:45:05.852Z,8.48
2022-07-25T20:47:32.900Z,8.32
2022-07-25T20:50:00.534Z,9.05
2022-07-25T20:52:31.310Z,8.75
2022-07-25T20:54:58.261Z,8.05
2022-07-25T20:57:25.262Z,8.70
2022-07-25T20:59:52.333Z,8.90
2022-07-25T21:02:19.382Z,8.98
2022-07-25T21:04:48.653Z,9.35
2022-07-25T21:07:16.938Z,8.30
2022-07-25T21:09:44.480Z,8.00
2022-07-25T21:12:11.558Z,8.35
2022-07-25T21:14:38.668Z,8.20
2022-07-25T21:17:05.953Z,8.90
2022-07-25T21:19:33.149Z,9.82
2022-07-25T21:22:00.090Z,8.57
2022-07-25T21:24:27.069Z,8.80
2022-07-25T21:26:54.023Z,8.85
2022-07-25T21:29:21.138Z,8.50
2022-07-25T21:31:48.416Z,8.55
2022-07-25T21:34:15.538Z,9.50
2022-07-25T21:36:42.600Z,8.07
2022-07-25T21:39:10.099Z,8.80
2022-07-25T21:41:37.302Z,13.05
2022-07-25T21:44:04.445Z,8.70
2022-07-25T21:46:31.771Z,10.48
2022-07-25T21:49:17.663Z,9.70
2022-07-25T21:52:04.819Z,9.45
2022-07-25T21:54:32.124Z,8.93
2022-07-25T21:56:59.125Z,8.43
2022-07-25T21:59:26.146Z,9.25
2022-07-25T22:01:53.114Z,9.25
2022-07-25T22:04:21.572Z,9.57
2022-07-25T22:06:48.695Z,9.20
2022-07-25T22:09:15.767Z,8.88
2022-07-25T22:11:46.491Z,9.00
2022-07-25T22:14:14.569Z,8.50
2022-07-25T22:16:42.597Z,8.90
2022-07-25T22:19:10.003Z,8.65
2022-07-25T22:21:37.199Z,8.98
2022-07-25T22:24:04.384Z,8.88
2022-07-25T22:26:31.369Z,8.57
2022-07-25T22:28:58.498Z,9.10
2022-07-25T22:31:25.582Z,9.45
2022-07-25T22:33:52.687Z,8.93
2022-07-25T22:36:19.780Z,9.05
2022-07-25T22:38:46.756Z,9.25
2022-07-25T22:41:13.832Z,9.45
2022-07-25T22:43:53.153Z,8.65
2022-07-25T22:46:28.579Z,8.95
2022-07-25T22:48:56.151Z,9.60
2022-07-25T22:51:23.602Z,8.65
2022-07-25T22:53:50.913Z,9.38
2022-07-25T22:56:18.036Z,9.20
2022-07-25T22:58:45.741Z,9.13
2022-07-25T23:01:17.814Z,9.45
2022-07-25T23:03:45.602Z,9.70
2022-07-25T23:06:13.442Z,9.52
2022-07-25T23:08:40.936Z,9.02
2022-07-25T23:11:08.594Z,9.68
2022-07-25T23:13:36.349Z,9.63
2022-07-25T23:16:04.154Z,9.80
2022-07-25T23:18:32.189Z,9.48
2022-07-25T23:20:59.424Z,9.02
2022-07-25T23:23:26.437Z,9.35
2022-07-25T23:25:53.454Z,9.57
2022-07-25T23:28:21.024Z,9.38
2022-07-25T23:30:48.107Z,10.35
2022-07-25T23:33:15.083Z,9.65
2022-07-25T23:35:42.413Z,9.85
2022-07-25T23:38:10.913Z,9.23
2022-07-25T23:40:37.948Z,9.43
2022-07-25T23:43:05.127Z,9.40
2022-07-25T23:45:32.849Z,9.07
2022-07-25T23:47:59.878Z,9.20
2022-07-25T23:50:26.940Z,9.20
2022-07-25T23:52:53.893Z,9.93
2022-07-25T23:55:20.887Z,9.30
2022-07-25T23:57:47.934Z,10.15
